sensor_id;sensor_type;location;lat;lon;timestamp;P1;durP1;ratioP1;P2;durP2;ratioP2
12880;SDS011;6508;53.786;9.996;2023-07-13T00:02:00;4.72;;;2.42;;
12880;SDS011;6508;53.786;9.996;2023-07-13T00:04:28;4.45;;;2.67;;
12880;SDS011;6508;53.786;9.996;2023-07-13T00:06:59;4.50;;;2.70;;
12880;SDS011;6508;53.786;9.996;2023-07-13T00:09:26;3.20;;;2.88;;
12880;SDS011;6508;53.786;9.996;2023-07-13T00:11:56;3.38;;;2.53;;
12880;SDS011;6508;53.786;9.996;2023-07-13T00:14:25;2.92;;;2.65;;
12880;SDS011;6508;53.786;9.996;2023-07-13T00:16:55;2.53;;;2.33;;
12880;SDS011;6508;53.786;9.996;2023-07-13T00:19:23;3.55;;;2.63;;
12880;SDS011;6508;53.786;9.996;2023-07-13T00:21:51;4.38;;;2.72;;
12880;SDS011;6508;53.786;9.996;2023-07-13T00:24:22;2.30;;;2.10;;
12880;SDS011;6508;53.786;9.996;2023-07-13T00:26:51;3.55;;;3.25;;
12880;SDS011;6508;53.786;9.996;2023-07-13T00:29:18;3.13;;;2.65;;
12880;SDS011;6508;53.786;9.996;2023-07-13T00:31:47;3.67;;;2.50;;
12880;SDS011;6508;53.786;9.996;2023-07-13T00:34:17;4.95;;;2.60;;
12880;SDS011;6508;53.786;9.996;2023-07-13T00:36:45;2.70;;;2.50;;
12880;SDS011;6508;53.786;9.996;2023-07-13T00:39:12;2.38;;;2.17;;
12880;SDS011;6508;53.786;9.996;2023-07-13T00:41:40;3.85;;;2.50;;
12880;SDS011;6508;53.786;9.996;2023-07-13T00:44:09;3.00;;;2.40;;
12880;SDS011;6508;53.786;9.996;2023-07-13T00:46:38;2.58;;;2.40;;
12880;SDS011;6508;53.786;9.996;2023-07-13T00:49:07;2.95;;;2.60;;
12880;SDS011;6508;53.786;9.996;2023-07-13T00:51:37;3.92;;;3.20;;
12880;SDS011;6508;53.786;9.996;2023-07-13T00:54:19;3.65;;;3.30;;
12880;SDS011;6508;53.786;9.996;2023-07-13T00:56:48;3.20;;;2.95;;
12880;SDS011;6508;53.786;9.996;2023-07-13T00:59:17;3.25;;;2.75;;
12880;SDS011;6508;53.786;9.996;2023-07-13T01:01:47;4.50;;;2.80;;
12880;SDS011;6508;53.786;9.996;2023-07-13T01:04:15;3.22;;;2.92;;
12880;SDS011;6508;53.786;9.996;2023-07-13T01:06:46;5.10;;;3.20;;
12880;SDS011;6508;53.786;9.996;2023-07-13T01:09:14;3.97;;;2.80;;
12880;SDS011;6508;53.786;9.996;2023-07-13T01:11:42;3.70;;;2.90;;
12880;SDS011;6508;53.786;9.996;2023-07-13T01:14:11;4.53;;;2.72;;
12880;SDS011;6508;53.786;9.996;2023-07-13T01:16:40;4.15;;;3.40;;
12880;SDS011;6508;53.786;9.996;2023-07-13T01:19:13;3.63;;;3.30;;
12880;SDS011;6508;53.786;9.996;2023-07-13T01:21:44;3.70;;;2.80;;
12880;SDS011;6508;53.786;9.996;2023-07-13T01:24:17;4.80;;;3.17;;
12880;SDS011;6508;53.786;9.996;2023-07-13T01:26:45;3.25;;;3.03;;
12880;SDS011;6508;53.786;9.996;2023-07-13T01:29:13;4.72;;;3.22;;
12880;SDS011;6508;53.786;9.996;2023-07-13T01:31:40;4.05;;;3.50;;
12880;SDS011;6508;53.786;9.996;2023-07-13T01:34:09;4.00;;;3.50;;
12880;SDS011;6508;53.786;9.996;2023-07-13T01:36:36;4.10;;;3.60;;
12880;SDS011;6508;53.786;9.996;2023-07-13T01:39:06;3.78;;;3.47;;
12880;SDS011;6508;53.786;9.996;2023-07-13T01:41:35;4.72;;;3.25;;
12880;SDS011;6508;53.786;9.996;2023-07-13T01:44:02;4.18;;;3.78;;
12880;SDS011;6508;53.786;9.996;2023-07-13T01:46:30;4.10;;;3.33;;
12880;SDS011;6508;53.786;9.996;2023-07-13T01:48:58;7.00;;;4.10;;
12880;SDS011;6508;53.786;9.996;2023-07-13T01:51:25;5.20;;;3.75;;
12880;SDS011;6508;53.786;9.996;2023-07-13T01:53:53;4.65;;;3.83;;
12880;SDS011;6508;53.786;9.996;2023-07-13T01:56:24;4.53;;;3.65;;
12880;SDS011;6508;53.786;9.996;2023-07-13T01:58:51;6.25;;;4.30;;
12880;SDS011;6508;53.786;9.996;2023-07-13T02:01:19;5.43;;;4.20;;
12880;SDS011;6508;53.786;9.996;2023-07-13T02:03:47;4.68;;;4.28;;
12880;SDS011;6508;53.786;9.996;2023-07-13T02:06:14;5.18;;;4.20;;
12880;SDS011;6508;53.786;9.996;2023-07-13T02:08:42;4.80;;;4.40;;
12880;SDS011;6508;53.786;9.996;2023-07-13T02:11:10;4.80;;;4.22;;
12880;SDS011;6508;53.786;9.996;2023-07-13T02:13:39;4.85;;;4.35;;
12880;SDS011;6508;53.786;9.996;2023-07-13T02:16:07;4.90;;;4.25;;
12880;SDS011;6508;53.786;9.996;2023-07-13T02:18:35;8.07;;;4.68;;
12880;SDS011;6508;53.786;9.996;2023-07-13T02:21:03;5.13;;;4.63;;
12880;SDS011;6508;53.786;9.996;2023-07-13T02:23:31;8.85;;;4.95;;
12880;SDS011;6508;53.786;9.996;2023-07-13T02:25:59;7.15;;;5.55;;
12880;SDS011;6508;53.786;9.996;2023-07-13T02:28:28;7.63;;;5.47;;
12880;SDS011;6508;53.786;9.996;2023-07-13T02:31:05;7.60;;;5.32;;
12880;SDS011;6508;53.786;9.996;2023-07-13T02:33:32;6.97;;;5.35;;
12880;SDS011;6508;53.786;9.996;2023-07-13T02:36:01;10.45;;;5.22;;
12880;SDS011;6508;53.786;9.996;2023-07-13T02:38:28;5.43;;;4.93;;
12880;SDS011;6508;53.786;9.996;2023-07-13T02:40:56;6.13;;;5.53;;
12880;SDS011;6508;53.786;9.996;2023-07-13T02:43:24;5.95;;;5.45;;
12880;SDS011;6508;53.786;9.996;2023-07-13T02:45:52;6.40;;;5.28;;
12880;SDS011;6508;53.786;9.996;2023-07-13T02:48:21;6.10;;;5.53;;
12880;SDS011;6508;53.786;9.996;2023-07-13T02:50:50;7.68;;;6.15;;
12880;SDS011;6508;53.786;9.996;2023-07-13T02:53:17;6.22;;;5.65;;
12880;SDS011;6508;53.786;9.996;2023-07-13T02:55:45;6.13;;;5.72;;
12880;SDS011;6508;53.786;9.996;2023-07-13T02:58:13;6.75;;;6.18;;
12880;SDS011;6508;53.786;9.996;2023-07-13T03:00:43;6.93;;;6.32;;
12880;SDS011;6508;53.786;9.996;2023-07-13T03:03:13;6.40;;;5.88;;
12880;SDS011;6508;53.786;9.996;2023-07-13T03:05:44;6.80;;;6.13;;
12880;SDS011;6508;53.786;9.996;2023-07-13T03:08:19;7.55;;;6.90;;
12880;SDS011;6508;53.786;9.996;2023-07-13T03:10:48;6.72;;;6.10;;
12880;SDS011;6508;53.786;9.996;2023-07-13T03:13:16;6.82;;;6.25;;
12880;SDS011;6508;53.786;9.996;2023-07-13T03:15:48;6.72;;;5.95;;
12880;SDS011;6508;53.786;9.996;2023-07-13T03:18:15;7.93;;;7.10;;
12880;SDS011;6508;53.786;9.996;2023-07-13T03:20:45;7.57;;;6.57;;
12880;SDS011;6508;53.786;9.996;2023-07-13T03:23:13;7.80;;;6.65;;
12880;SDS011;6508;53.786;9.996;2023-07-13T03:25:41;7.35;;;6.75;;
12880;SDS011;6508;53.786;9.996;2023-07-13T03:28:08;6.85;;;6.25;;
12880;SDS011;6508;53.786;9.996;2023-07-13T03:30:37;7.47;;;6.85;;
12880;SDS011;6508;53.786;9.996;2023-07-13T03:33:05;7.28;;;6.68;;
12880;SDS011;6508;53.786;9.996;2023-07-13T03:35:35;7.85;;;7.15;;
12880;SDS011;6508;53.786;9.996;2023-07-13T03:38:09;7.70;;;6.85;;
12880;SDS011;6508;53.786;9.996;2023-07-13T03:40:36;8.85;;;7.90;;
12880;SDS011;6508;53.786;9.996;2023-07-13T03:43:04;8.20;;;7.00;;
12880;SDS011;6508;53.786;9.996;2023-07-13T03:45:32;7.53;;;6.22;;
12880;SDS011;6508;53.786;9.996;2023-07-13T03:48:00;7.05;;;6.55;;
12880;SDS011;6508;53.786;9.996;2023-07-13T03:50:28;6.97;;;6.28;;
12880;SDS011;6508;53.786;9.996;2023-07-13T03:52:56;8.02;;;7.20;;
12880;SDS011;6508;53.786;9.996;2023-07-13T03:55:26;9.07;;;6.57;;
12880;SDS011;6508;53.786;9.996;2023-07-13T03:57:57;7.60;;;7.05;;
12880;SDS011;6508;53.786;9.996;2023-07-13T04:00:25;8.65;;;6.63;;
12880;SDS011;6508;53.786;9.996;2023-07-13T04:02:53;7.75;;;6.95;;
12880;SDS011;6508;53.786;9.996;2023-07-13T04:05:22;7.53;;;6.82;;
12880;SDS011;6508;53.786;9.996;2023-07-13T04:07:50;8.00;;;7.07;;
12880;SDS011;6508;53.786;9.996;2023-07-13T04:10:16;8.27;;;6.95;;
12880;SDS011;6508;53.786;9.996;2023-07-13T04:12:46;9.60;;;6.57;;
12880;SDS011;6508;53.786;9.996;2023-07-13T04:15:14;7.32;;;6.68;;
12880;SDS011;6508;53.786;9.996;2023-07-13T04:17:42;6.80;;;6.20;;
12880;SDS011;6508;53.786;9.996;2023-07-13T04:20:10;7.15;;;6.53;;
12880;SDS011;6508;53.786;9.996;2023-07-13T04:22:38;6.82;;;6.07;;
12880;SDS011;6508;53.786;9.996;2023-07-13T04:25:06;6.63;;;6.07;;
12880;SDS011;6508;53.786;9.996;2023-07-13T04:27:33;8.27;;;6.47;;
12880;SDS011;6508;53.786;9.996;2023-07-13T04:30:03;9.35;;;6.22;;
12880;SDS011;6508;53.786;9.996;2023-07-13T04:32:30;7.50;;;6.28;;
12880;SDS011;6508;53.786;9.996;2023-07-13T04:34:59;7.15;;;6.45;;
12880;SDS011;6508;53.786;9.996;2023-07-13T04:37:27;8.27;;;6.10;;
12880;SDS011;6508;53.786;9.996;2023-07-13T04:39:56;8.65;;;7.07;;
12880;SDS011;6508;53.786;9.996;2023-07-13T04:42:24;9.63;;;5.95;;
12880;SDS011;6508;53.786;9.996;2023-07-13T04:44:52;8.15;;;6.35;;
12880;SDS011;6508;53.786;9.996;2023-07-13T04:47:21;7.95;;;6.20;;
12880;SDS011;6508;53.786;9.996;2023-07-13T04:49:49;9.52;;;6.65;;
12880;SDS011;6508;53.786;9.996;2023-07-13T04:52:16;7.32;;;5.88;;
12880;SDS011;6508;53.786;9.996;2023-07-13T04:54:44;5.93;;;5.50;;
12880;SDS011;6508;53.786;9.996;2023-07-13T04:57:11;10.40;;;5.68;;
12880;SDS011;6508;53.786;9.996;2023-07-13T04:59:39;6.00;;;5.05;;
12880;SDS011;6508;53.786;9.996;2023-07-13T05:02:07;8.65;;;5.35;;
12880;SDS011;6508;53.786;9.996;2023-07-13T05:04:36;6.72;;;4.80;;
12880;SDS011;6508;53.786;9.996;2023-07-13T05:07:04;5.10;;;4.70;;
12880;SDS011;6508;53.786;9.996;2023-07-13T05:09:32;6.38;;;4.47;;
12880;SDS011;6508;53.786;9.996;2023-07-13T05:12:00;7.75;;;4.22;;
12880;SDS011;6508;53.786;9.996;2023-07-13T05:14:28;9.70;;;4.75;;
12880;SDS011;6508;53.786;9.996;2023-07-13T05:16:57;6.30;;;4.40;;
12880;SDS011;6508;53.786;9.996;2023-07-13T05:19:25;5.07;;;4.50;;
12880;SDS011;6508;53.786;9.996;2023-07-13T05:21:54;7.80;;;4.47;;
12880;SDS011;6508;53.786;9.996;2023-07-13T05:24:22;7.20;;;4.50;;
12880;SDS011;6508;53.786;9.996;2023-07-13T05:26:51;5.05;;;4.30;;
12880;SDS011;6508;53.786;9.996;2023-07-13T05:29:20;6.25;;;4.20;;
12880;SDS011;6508;53.786;9.996;2023-07-13T05:31:48;4.55;;;4.15;;
12880;SDS011;6508;53.786;9.996;2023-07-13T05:34:16;5.97;;;4.63;;
12880;SDS011;6508;53.786;9.996;2023-07-13T05:36:45;4.72;;;3.20;;
12880;SDS011;6508;53.786;9.996;2023-07-13T05:39:14;6.18;;;3.72;;
12880;SDS011;6508;53.786;9.996;2023-07-13T05:41:42;5.07;;;4.22;;
12880;SDS011;6508;53.786;9.996;2023-07-13T05:44:10;5.60;;;4.25;;
12880;SDS011;6508;53.786;9.996;2023-07-13T05:46:37;6.88;;;3.88;;
12880;SDS011;6508;53.786;9.996;2023-07-13T05:49:05;6.97;;;4.20;;
12880;SDS011;6508;53.786;9.996;2023-07-13T05:51:33;10.60;;;4.22;;
12880;SDS011;6508;53.786;9.996;2023-07-13T05:54:00;5.97;;;4.45;;
12880;SDS011;6508;53.786;9.996;2023-07-13T05:56:30;9.45;;;4.55;;
12880;SDS011;6508;53.786;9.996;2023-07-13T05:58:57;7.15;;;4.25;;
12880;SDS011;6508;53.786;9.996;2023-07-13T06:01:25;7.03;;;4.18;;
12880;SDS011;6508;53.786;9.996;2023-07-13T06:03:53;6.53;;;4.60;;
12880;SDS011;6508;53.786;9.996;2023-07-13T06:06:21;5.13;;;4.63;;
12880;SDS011;6508;53.786;9.996;2023-07-13T06:08:49;8.23;;;5.25;;
12880;SDS011;6508;53.786;9.996;2023-07-13T06:11:17;12.02;;;5.05;;
12880;SDS011;6508;53.786;9.996;2023-07-13T06:13:47;8.50;;;4.95;;
12880;SDS011;6508;53.786;9.996;2023-07-13T06:16:15;11.43;;;4.68;;
12880;SDS011;6508;53.786;9.996;2023-07-13T06:18:43;9.43;;;4.70;;
12880;SDS011;6508;53.786;9.996;2023-07-13T06:21:12;5.75;;;4.60;;
12880;SDS011;6508;53.786;9.996;2023-07-13T06:23:41;5.93;;;4.05;;
12880;SDS011;6508;53.786;9.996;2023-07-13T06:26:09;4.07;;;3.67;;
12880;SDS011;6508;53.786;9.996;2023-07-13T06:28:37;6.65;;;4.35;;
12880;SDS011;6508;53.786;9.996;2023-07-13T06:31:07;7.18;;;4.00;;
12880;SDS011;6508;53.786;9.996;2023-07-13T06:33:36;6.50;;;4.05;;
12880;SDS011;6508;53.786;9.996;2023-07-13T06:36:05;9.43;;;4.63;;
12880;SDS011;6508;53.786;9.996;2023-07-13T06:38:34;8.85;;;4.10;;
12880;SDS011;6508;53.786;9.996;2023-07-13T06:41:01;5.93;;;3.90;;
12880;SDS011;6508;53.786;9.996;2023-07-13T06:43:29;5.65;;;4.18;;
12880;SDS011;6508;53.786;9.996;2023-07-13T06:45:58;7.00;;;4.53;;
12880;SDS011;6508;53.786;9.996;2023-07-13T06:48:28;8.55;;;4.25;;
12880;SDS011;6508;53.786;9.996;2023-07-13T06:50:56;6.90;;;4.20;;
12880;SDS011;6508;53.786;9.996;2023-07-13T06:53:23;4.15;;;3.83;;
12880;SDS011;6508;53.786;9.996;2023-07-13T06:55:51;5.72;;;3.47;;
12880;SDS011;6508;53.786;9.996;2023-07-13T06:58:19;5.18;;;4.43;;
12880;SDS011;6508;53.786;9.996;2023-07-13T07:00:49;5.65;;;3.33;;
12880;SDS011;6508;53.786;9.996;2023-07-13T07:03:17;5.55;;;3.80;;
12880;SDS011;6508;53.786;9.996;2023-07-13T07:05:47;4.90;;;3.67;;
12880;SDS011;6508;53.786;9.996;2023-07-13T07:08:14;4.13;;;3.83;;
12880;SDS011;6508;53.786;9.996;2023-07-13T07:10:42;4.38;;;3.35;;
12880;SDS011;6508;53.786;9.996;2023-07-13T07:13:11;4.68;;;3.95;;
12880;SDS011;6508;53.786;9.996;2023-07-13T07:15:38;11.00;;;3.63;;
12880;SDS011;6508;53.786;9.996;2023-07-13T07:18:06;5.60;;;3.50;;
12880;SDS011;6508;53.786;9.996;2023-07-13T07:20:34;7.13;;;4.20;;
12880;SDS011;6508;53.786;9.996;2023-07-13T07:23:03;5.68;;;3.70;;
12880;SDS011;6508;53.786;9.996;2023-07-13T07:25:31;3.88;;;3.50;;
12880;SDS011;6508;53.786;9.996;2023-07-13T07:28:01;5.28;;;3.28;;
12880;SDS011;6508;53.786;9.996;2023-07-13T07:30:32;4.10;;;3.70;;
12880;SDS011;6508;53.786;9.996;2023-07-13T07:33:02;5.40;;;3.55;;
12880;SDS011;6508;53.786;9.996;2023-07-13T07:35:31;4.95;;;3.72;;
12880;SDS011;6508;53.786;9.996;2023-07-13T07:38:08;3.90;;;3.20;;
12880;SDS011;6508;53.786;9.996;2023-07-13T07:40:37;4.65;;;3.30;;
12880;SDS011;6508;53.786;9.996;2023-07-13T07:43:08;5.35;;;3.13;;
12880;SDS011;6508;53.786;9.996;2023-07-13T07:45:36;4.65;;;3.85;;
12880;SDS011;6508;53.786;9.996;2023-07-13T07:48:05;6.32;;;3.35;;
12880;SDS011;6508;53.786;9.996;2023-07-13T07:50:33;3.85;;;2.97;;
12880;SDS011;6508;53.786;9.996;2023-07-13T07:53:01;7.55;;;3.05;;
12880;SDS011;6508;53.786;9.996;2023-07-13T07:55:30;5.25;;;3.47;;
12880;SDS011;6508;53.786;9.996;2023-07-13T07:58:03;3.83;;;2.63;;
12880;SDS011;6508;53.786;9.996;2023-07-13T08:00:51;3.00;;;2.78;;
12880;SDS011;6508;53.786;9.996;2023-07-13T08:03:21;6.20;;;3.08;;
12880;SDS011;6508;53.786;9.996;2023-07-13T08:05:52;6.53;;;3.17;;
12880;SDS011;6508;53.786;9.996;2023-07-13T08:08:23;4.88;;;3.13;;
12880;SDS011;6508;53.786;9.996;2023-07-13T08:10:52;2.95;;;2.72;;
12880;SDS011;6508;53.786;9.996;2023-07-13T08:13:25;5.22;;;3.95;;
12880;SDS011;6508;53.786;9.996;2023-07-13T08:15:53;3.65;;;2.92;;
12880;SDS011;6508;53.786;9.996;2023-07-13T08:18:21;3.13;;;2.80;;
12880;SDS011;6508;53.786;9.996;2023-07-13T08:20:49;3.72;;;3.30;;
12880;SDS011;6508;53.786;9.996;2023-07-13T08:23:17;4.82;;;3.20;;
12880;SDS011;6508;53.786;9.996;2023-07-13T08:25:50;3.38;;;3.08;;
12880;SDS011;6508;53.786;9.996;2023-07-13T08:28:19;3.38;;;2.90;;
12880;SDS011;6508;53.786;9.996;2023-07-13T08:30:47;5.15;;;4.25;;
12880;SDS011;6508;53.786;9.996;2023-07-13T08:33:16;3.95;;;3.47;;
12880;SDS011;6508;53.786;9.996;2023-07-13T08:35:45;3.97;;;3.10;;
12880;SDS011;6508;53.786;9.996;2023-07-13T08:38:13;4.43;;;3.10;;
12880;SDS011;6508;53.786;9.996;2023-07-13T08:40:41;3.60;;;3.08;;
12880;SDS011;6508;53.786;9.996;2023-07-13T08:43:11;10.13;;;3.08;;
12880;SDS011;6508;53.786;9.996;2023-07-13T08:45:42;2.58;;;2.40;;
12880;SDS011;6508;53.786;9.996;2023-07-13T08:48:11;6.63;;;2.60;;
12880;SDS011;6508;53.786;9.996;2023-07-13T08:50:42;3.60;;;3.30;;
12880;SDS011;6508;53.786;9.996;2023-07-13T08:53:29;3.33;;;3.08;;
12880;SDS011;6508;53.786;9.996;2023-07-13T08:55:59;3.35;;;3.00;;
12880;SDS011;6508;53.786;9.996;2023-07-13T08:58:28;3.95;;;3.00;;
12880;SDS011;6508;53.786;9.996;2023-07-13T09:01:00;4.32;;;2.85;;
12880;SDS011;6508;53.786;9.996;2023-07-13T09:03:31;2.47;;;2.30;;
12880;SDS011;6508;53.786;9.996;2023-07-13T09:06:02;5.28;;;3.10;;
12880;SDS011;6508;53.786;9.996;2023-07-13T09:08:38;3.25;;;3.00;;
12880;SDS011;6508;53.786;9.996;2023-07-13T09:11:11;5.75;;;4.50;;
12880;SDS011;6508;53.786;9.996;2023-07-13T09:13:43;4.03;;;3.58;;
12880;SDS011;6508;53.786;9.996;2023-07-13T09:16:17;3.42;;;3.20;;
12880;SDS011;6508;53.786;9.996;2023-07-13T09:18:45;4.10;;;3.25;;
12880;SDS011;6508;53.786;9.996;2023-07-13T09:21:15;4.82;;;3.45;;
12880;SDS011;6508;53.786;9.996;2023-07-13T09:23:43;4.13;;;3.17;;
12880;SDS011;6508;53.786;9.996;2023-07-13T09:26:12;3.67;;;3.38;;
12880;SDS011;6508;53.786;9.996;2023-07-13T09:28:41;4.78;;;3.67;;
12880;SDS011;6508;53.786;9.996;2023-07-13T09:31:11;3.95;;;3.60;;
12880;SDS011;6508;53.786;9.996;2023-07-13T09:33:42;4.07;;;3.63;;
12880;SDS011;6508;53.786;9.996;2023-07-13T09:36:17;4.65;;;4.05;;
12880;SDS011;6508;53.786;9.996;2023-07-13T09:38:45;3.65;;;3.33;;
12880;SDS011;6508;53.786;9.996;2023-07-13T09:41:17;5.53;;;3.67;;
12880;SDS011;6508;53.786;9.996;2023-07-13T09:46:32;3.70;;;3.50;;
12880;SDS011;6508;53.786;9.996;2023-07-13T09:49:02;3.85;;;3.50;;
12880;SDS011;6508;53.786;9.996;2023-07-13T09:51:29;4.03;;;3.63;;
12880;SDS011;6508;53.786;9.996;2023-07-13T09:53:57;4.35;;;3.20;;
12880;SDS011;6508;53.786;9.996;2023-07-13T09:56:26;4.10;;;3.33;;
12880;SDS011;6508;53.786;9.996;2023-07-13T09:58:56;4.25;;;3.25;;
12880;SDS011;6508;53.786;9.996;2023-07-13T10:01:34;3.28;;;3.17;;
12880;SDS011;6508;53.786;9.996;2023-07-13T10:04:03;4.90;;;3.92;;
12880;SDS011;6508;53.786;9.996;2023-07-13T10:06:38;3.22;;;3.03;;
12880;SDS011;6508;53.786;9.996;2023-07-13T10:09:07;3.67;;;3.38;;
12880;SDS011;6508;53.786;9.996;2023-07-13T10:11:36;3.40;;;3.10;;
12880;SDS011;6508;53.786;9.996;2023-07-13T10:14:09;3.33;;;2.72;;
12880;SDS011;6508;53.786;9.996;2023-07-13T10:16:37;3.75;;;3.00;;
12880;SDS011;6508;53.786;9.996;2023-07-13T10:19:10;5.22;;;2.80;;
12880;SDS011;6508;53.786;9.996;2023-07-13T10:21:40;4.28;;;2.75;;
12880;SDS011;6508;53.786;9.996;2023-07-13T10:24:10;3.45;;;2.80;;
12880;SDS011;6508;53.786;9.996;2023-07-13T10:26:42;2.80;;;2.60;;
12880;SDS011;6508;53.786;9.996;2023-07-13T10:29:12;2.95;;;2.75;;
12880;SDS011;6508;53.786;9.996;2023-07-13T10:31:42;3.20;;;2.85;;
12880;SDS011;6508;53.786;9.996;2023-07-13T10:34:11;4.10;;;3.72;;
12880;SDS011;6508;53.786;9.996;2023-07-13T10:36:40;7.68;;;6.97;;
12880;SDS011;6508;53.786;9.996;2023-07-13T10:39:10;9.80;;;9.00;;
12880;SDS011;6508;53.786;9.996;2023-07-13T10:41:41;8.88;;;8.15;;
12880;SDS011;6508;53.786;9.996;2023-07-13T10:44:12;7.28;;;6.88;;
12880;SDS011;6508;53.786;9.996;2023-07-13T10:46:43;7.78;;;7.18;;
12880;SDS011;6508;53.786;9.996;2023-07-13T10:49:12;8.10;;;7.32;;
12880;SDS011;6508;53.786;9.996;2023-07-13T10:51:41;5.75;;;5.35;;
12880;SDS011;6508;53.786;9.996;2023-07-13T10:54:14;3.83;;;3.63;;
12880;SDS011;6508;53.786;9.996;2023-07-13T10:56:50;7.82;;;4.28;;
12880;SDS011;6508;53.786;9.996;2023-07-13T10:59:18;6.60;;;4.18;;
12880;SDS011;6508;53.786;9.996;2023-07-13T11:01:49;4.68;;;4.25;;
12880;SDS011;6508;53.786;9.996;2023-07-13T11:04:19;4.35;;;3.88;;
12880;SDS011;6508;53.786;9.996;2023-07-13T11:06:49;84.80;;;8.80;;
12880;SDS011;6508;53.786;9.996;2023-07-13T11:09:19;4.10;;;3.70;;
12880;SDS011;6508;53.786;9.996;2023-07-13T11:11:47;6.38;;;4.30;;
12880;SDS011;6508;53.786;9.996;2023-07-13T11:14:31;4.82;;;4.43;;
12880;SDS011;6508;53.786;9.996;2023-07-13T11:19:45;5.10;;;4.70;;
12880;SDS011;6508;53.786;9.996;2023-07-13T11:22:23;5.40;;;5.10;;
12880;SDS011;6508;53.786;9.996;2023-07-13T11:24:52;5.35;;;4.93;;
12880;SDS011;6508;53.786;9.996;2023-07-13T11:27:22;5.53;;;4.55;;
12880;SDS011;6508;53.786;9.996;2023-07-13T11:29:49;6.30;;;5.97;;
12880;SDS011;6508;53.786;9.996;2023-07-13T11:32:24;5.53;;;5.20;;
12880;SDS011;6508;53.786;9.996;2023-07-13T11:34:55;4.15;;;3.85;;
12880;SDS011;6508;53.786;9.996;2023-07-13T11:37:22;3.97;;;3.67;;
12880;SDS011;6508;53.786;9.996;2023-07-13T11:39:51;2.60;;;2.47;;
12880;SDS011;6508;53.786;9.996;2023-07-13T11:42:20;6.43;;;3.00;;
12880;SDS011;6508;53.786;9.996;2023-07-13T11:44:48;2.47;;;2.30;;
12880;SDS011;6508;53.786;9.996;2023-07-13T11:47:34;4.07;;;2.03;;
12880;SDS011;6508;53.786;9.996;2023-07-13T11:50:17;4.65;;;2.22;;
12880;SDS011;6508;53.786;9.996;2023-07-13T11:52:45;2.30;;;2.20;;
12880;SDS011;6508;53.786;9.996;2023-07-13T11:55:13;3.80;;;3.50;;
12880;SDS011;6508;53.786;9.996;2023-07-13T11:57:43;4.70;;;4.47;;
12880;SDS011;6508;53.786;9.996;2023-07-13T12:00:13;6.45;;;4.20;;
12880;SDS011;6508;53.786;9.996;2023-07-13T12:02:42;4.43;;;4.05;;
12880;SDS011;6508;53.786;9.996;2023-07-13T12:05:13;9.98;;;4.20;;
12880;SDS011;6508;53.786;9.996;2023-07-13T12:07:43;4.95;;;3.97;;
12880;SDS011;6508;53.786;9.996;2023-07-13T12:10:15;9.00;;;4.00;;
12880;SDS011;6508;53.786;9.996;2023-07-13T12:12:46;4.50;;;2.92;;
12880;SDS011;6508;53.786;9.996;2023-07-13T12:15:14;4.55;;;2.30;;
12880;SDS011;6508;53.786;9.996;2023-07-13T12:17:42;2.33;;;2.20;;
12880;SDS011;6508;53.786;9.996;2023-07-13T12:20:17;4.63;;;2.95;;
12880;SDS011;6508;53.786;9.996;2023-07-13T12:22:49;4.50;;;2.33;;
12880;SDS011;6508;53.786;9.996;2023-07-13T12:25:17;3.00;;;2.72;;
12880;SDS011;6508;53.786;9.996;2023-07-13T12:27:48;4.25;;;2.72;;
12880;SDS011;6508;53.786;9.996;2023-07-13T12:30:24;3.40;;;3.10;;
12880;SDS011;6508;53.786;9.996;2023-07-13T12:32:56;3.20;;;2.72;;
12880;SDS011;6508;53.786;9.996;2023-07-13T12:35:24;3.42;;;3.20;;
12880;SDS011;6508;53.786;9.996;2023-07-13T12:37:54;3.20;;;3.00;;
12880;SDS011;6508;53.786;9.996;2023-07-13T12:40:32;5.80;;;3.20;;
12880;SDS011;6508;53.786;9.996;2023-07-13T12:43:02;3.60;;;3.40;;
12880;SDS011;6508;53.786;9.996;2023-07-13T12:45:33;4.97;;;3.45;;
12880;SDS011;6508;53.786;9.996;2023-07-13T12:48:04;4.22;;;3.92;;
12880;SDS011;6508;53.786;9.996;2023-07-13T12:50:37;3.92;;;3.63;;
12880;SDS011;6508;53.786;9.996;2023-07-13T12:53:06;4.10;;;3.42;;
12880;SDS011;6508;53.786;9.996;2023-07-13T12:55:40;3.40;;;3.13;;
12880;SDS011;6508;53.786;9.996;2023-07-13T12:58:09;3.55;;;3.22;;
12880;SDS011;6508;53.786;9.996;2023-07-13T13:00:40;3.60;;;3.30;;
12880;SDS011;6508;53.786;9.996;2023-07-13T13:03:11;4.22;;;3.83;;
12880;SDS011;6508;53.786;9.996;2023-07-13T13:05:56;4.00;;;3.33;;
12880;SDS011;6508;53.786;9.996;2023-07-13T13:08:26;5.13;;;3.40;;
12880;SDS011;6508;53.786;9.996;2023-07-13T13:10:54;4.35;;;3.95;;
12880;SDS011;6508;53.786;9.996;2023-07-13T13:13:21;4.25;;;3.95;;
12880;SDS011;6508;53.786;9.996;2023-07-13T13:15:49;4.22;;;3.47;;
12880;SDS011;6508;53.786;9.996;2023-07-13T13:18:17;4.60;;;3.30;;
12880;SDS011;6508;53.786;9.996;2023-07-13T13:20:46;4.03;;;3.72;;
12880;SDS011;6508;53.786;9.996;2023-07-13T13:23:14;3.63;;;3.35;;
12880;SDS011;6508;53.786;9.996;2023-07-13T13:25:46;3.30;;;3.00;;
12880;SDS011;6508;53.786;9.996;2023-07-13T13:28:15;3.47;;;3.15;;
12880;SDS011;6508;53.786;9.996;2023-07-13T13:30:47;3.53;;;3.20;;
12880;SDS011;6508;53.786;9.996;2023-07-13T13:33:17;3.63;;;3.42;;
12880;SDS011;6508;53.786;9.996;2023-07-13T13:35:45;5.50;;;3.03;;
12880;SDS011;6508;53.786;9.996;2023-07-13T13:38:13;3.22;;;2.95;;
12880;SDS011;6508;53.786;9.996;2023-07-13T13:40:42;3.53;;;2.95;;
12880;SDS011;6508;53.786;9.996;2023-07-13T13:43:15;3.20;;;3.00;;
12880;SDS011;6508;53.786;9.996;2023-07-13T13:45:45;3.55;;;3.13;;
12880;SDS011;6508;53.786;9.996;2023-07-13T13:48:16;3.70;;;3.40;;
12880;SDS011;6508;53.786;9.996;2023-07-13T13:50:45;3.60;;;3.40;;
12880;SDS011;6508;53.786;9.996;2023-07-13T13:53:13;3.65;;;3.40;;
12880;SDS011;6508;53.786;9.996;2023-07-13T13:55:41;3.22;;;3.03;;
12880;SDS011;6508;53.786;9.996;2023-07-13T13:58:10;4.05;;;3.63;;
12880;SDS011;6508;53.786;9.996;2023-07-13T14:00:39;4.00;;;3.70;;
12880;SDS011;6508;53.786;9.996;2023-07-13T14:03:10;4.30;;;4.10;;
12880;SDS011;6508;53.786;9.996;2023-07-13T14:05:41;3.90;;;3.50;;
12880;SDS011;6508;53.786;9.996;2023-07-13T14:08:11;4.88;;;3.35;;
12880;SDS011;6508;53.786;9.996;2023-07-13T14:10:39;4.22;;;3.40;;
12880;SDS011;6508;53.786;9.996;2023-07-13T14:13:08;4.00;;;3.80;;
12880;SDS011;6508;53.786;9.996;2023-07-13T14:15:44;3.85;;;3.65;;
12880;SDS011;6508;53.786;9.996;2023-07-13T14:18:12;4.32;;;3.92;;
12880;SDS011;6508;53.786;9.996;2023-07-13T14:20:44;4.22;;;3.90;;
12880;SDS011;6508;53.786;9.996;2023-07-13T14:23:12;3.40;;;3.20;;
12880;SDS011;6508;53.786;9.996;2023-07-13T14:25:40;3.75;;;3.55;;
12880;SDS011;6508;53.786;9.996;2023-07-13T14:28:13;3.00;;;2.88;;
12880;SDS011;6508;53.786;9.996;2023-07-13T14:30:44;5.07;;;3.10;;
12880;SDS011;6508;53.786;9.996;2023-07-13T14:33:13;3.20;;;3.00;;
12880;SDS011;6508;53.786;9.996;2023-07-13T14:35:41;3.60;;;3.30;;
12880;SDS011;6508;53.786;9.996;2023-07-13T14:38:11;3.10;;;2.80;;
12880;SDS011;6508;53.786;9.996;2023-07-13T14:40:40;3.50;;;3.30;;
12880;SDS011;6508;53.786;9.996;2023-07-13T14:43:09;3.03;;;2.92;;
12880;SDS011;6508;53.786;9.996;2023-07-13T14:45:38;3.45;;;3.25;;
12880;SDS011;6508;53.786;9.996;2023-07-13T14:48:14;3.85;;;3.63;;
12880;SDS011;6508;53.786;9.996;2023-07-13T14:50:43;3.88;;;3.60;;
12880;SDS011;6508;53.786;9.996;2023-07-13T14:53:11;4.47;;;4.28;;
12880;SDS011;6508;53.786;9.996;2023-07-13T14:55:39;3.40;;;3.30;;
12880;SDS011;6508;53.786;9.996;2023-07-13T14:58:08;3.92;;;3.63;;
12880;SDS011;6508;53.786;9.996;2023-07-13T15:00:37;3.08;;;2.95;;
12880;SDS011;6508;53.786;9.996;2023-07-13T15:03:05;3.30;;;3.17;;
12880;SDS011;6508;53.786;9.996;2023-07-13T15:05:35;2.95;;;2.65;;
12880;SDS011;6508;53.786;9.996;2023-07-13T15:08:04;3.95;;;3.10;;
12880;SDS011;6508;53.786;9.996;2023-07-13T15:10:32;3.30;;;3.00;;
12880;SDS011;6508;53.786;9.996;2023-07-13T15:13:01;3.53;;;3.33;;
12880;SDS011;6508;53.786;9.996;2023-07-13T15:15:40;2.85;;;2.70;;
12880;SDS011;6508;53.786;9.996;2023-07-13T15:18:08;3.42;;;3.22;;
12880;SDS011;6508;53.786;9.996;2023-07-13T15:20:38;2.80;;;2.70;;